sensor_id;sensor_type;location;lat;lon;timestamp;P1;durP1;ratioP1;P2;durP2;ratioP2
64885;SDS011;51514;52.206;5.114;2024-03-29T00:00:36;5.63;;;2.25;;
64885;SDS011;51514;52.206;5.114;2024-03-29T00:03:02;8.55;;;2.17;;
64885;SDS011;51514;52.206;5.114;2024-03-29T00:05:27;7.28;;;3.15;;
64885;SDS011;51514;52.206;5.114;2024-03-29T00:07:53;4.63;;;2.22;;
64885;SDS011;51514;52.206;5.114;2024-03-29T00:10:18;10.88;;;2.17;;
64885;SDS011;51514;52.206;5.114;2024-03-29T00:12:43;9.30;;;3.08;;
64885;SDS011;51514;52.206;5.114;2024-03-29T00:15:09;6.68;;;2.00;;
64885;SDS011;51514;52.206;5.114;2024-03-29T00:17:34;5.70;;;1.98;;
64885;SDS011;51514;52.206;5.114;2024-03-29T00:20:00;6.80;;;2.13;;
64885;SDS011;51514;52.206;5.114;2024-03-29T00:22:25;6.90;;;2.47;;
64885;SDS011;51514;52.206;5.114;2024-03-29T00:24:51;8.00;;;2.00;;
64885;SDS011;51514;52.206;5.114;2024-03-29T00:27:16;6.32;;;2.72;;
64885;SDS011;51514;52.206;5.114;2024-03-29T00:29:41;5.57;;;2.92;;
64885;SDS011;51514;52.206;5.114;2024-03-29T00:32:08;5.38;;;2.00;;
64885;SDS011;51514;52.206;5.114;2024-03-29T00:34:34;8.30;;;3.05;;
64885;SDS011;51514;52.206;5.114;2024-03-29T00:36:59;6.40;;;2.20;;
64885;SDS011;51514;52.206;5.114;2024-03-29T00:39:24;5.15;;;1.48;;
64885;SDS011;51514;52.206;5.114;2024-03-29T00:41:50;10.32;;;2.72;;
64885;SDS011;51514;52.206;5.114;2024-03-29T00:44:15;7.00;;;1.92;;
64885;SDS011;51514;52.206;5.114;2024-03-29T00:46:40;6.95;;;2.78;;
64885;SDS011;51514;52.206;5.114;2024-03-29T00:49:06;6.30;;;2.05;;
64885;SDS011;51514;52.206;5.114;2024-03-29T00:51:31;8.32;;;2.20;;
64885;SDS011;51514;52.206;5.114;2024-03-29T00:53:56;6.32;;;2.17;;
64885;SDS011;51514;52.206;5.114;2024-03-29T00:56:22;5.97;;;2.33;;
64885;SDS011;51514;52.206;5.114;2024-03-29T00:58:47;5.30;;;2.08;;
64885;SDS011;51514;52.206;5.114;2024-03-29T01:01:12;6.45;;;2.28;;
64885;SDS011;51514;52.206;5.114;2024-03-29T01:03:38;7.22;;;2.40;;
64885;SDS011;51514;52.206;5.114;2024-03-29T01:06:03;8.98;;;2.22;;
64885;SDS011;51514;52.206;5.114;2024-03-29T01:08:29;5.38;;;2.08;;
64885;SDS011;51514;52.206;5.114;2024-03-29T01:10:54;9.45;;;2.08;;
64885;SDS011;51514;52.206;5.114;2024-03-29T01:13:19;5.80;;;1.80;;
64885;SDS011;51514;52.206;5.114;2024-03-29T01:15:45;10.10;;;3.53;;
64885;SDS011;51514;52.206;5.114;2024-03-29T01:18:10;4.72;;;2.22;;
64885;SDS011;51514;52.206;5.114;2024-03-29T01:20:35;5.70;;;2.00;;
64885;SDS011;51514;52.206;5.114;2024-03-29T01:23:01;8.20;;;2.50;;
64885;SDS011;51514;52.206;5.114;2024-03-29T01:25:27;7.50;;;2.33;;
64885;SDS011;51514;52.206;5.114;2024-03-29T01:27:52;6.93;;;2.20;;
64885;SDS011;51514;52.206;5.114;2024-03-29T01:30:18;7.95;;;2.17;;
64885;SDS011;51514;52.206;5.114;2024-03-29T01:32:43;8.48;;;1.98;;
64885;SDS011;51514;52.206;5.114;2024-03-29T01:35:09;9.85;;;3.13;;
64885;SDS011;51514;52.206;5.114;2024-03-29T01:37:34;5.32;;;2.22;;
64885;SDS011;51514;52.206;5.114;2024-03-29T01:40:00;8.13;;;2.70;;
64885;SDS011;51514;52.206;5.114;2024-03-29T01:42:25;10.23;;;2.60;;
64885;SDS011;51514;52.206;5.114;2024-03-29T01:44:50;9.77;;;2.85;;
64885;SDS011;51514;52.206;5.114;2024-03-29T01:47:16;4.45;;;2.20;;
64885;SDS011;51514;52.206;5.114;2024-03-29T01:49:43;4.57;;;2.33;;
64885;SDS011;51514;52.206;5.114;2024-03-29T01:52:10;7.50;;;3.08;;
64885;SDS011;51514;52.206;5.114;2024-03-29T01:54:37;7.82;;;1.92;;
64885;SDS011;51514;52.206;5.114;2024-03-29T01:57:03;5.13;;;1.90;;
64885;SDS011;51514;52.206;5.114;2024-03-29T01:59:29;6.25;;;2.30;;
64885;SDS011;51514;52.206;5.114;2024-03-29T02:01:55;7.07;;;2.28;;
64885;SDS011;51514;52.206;5.114;2024-03-29T02:04:20;7.97;;;1.90;;
64885;SDS011;51514;52.206;5.114;2024-03-29T02:06:46;9.13;;;2.13;;
64885;SDS011;51514;52.206;5.114;2024-03-29T02:09:12;7.45;;;1.85;;
64885;SDS011;51514;52.206;5.114;2024-03-29T02:11:37;6.40;;;2.35;;
64885;SDS011;51514;52.206;5.114;2024-03-29T02:14:03;6.38;;;2.20;;
64885;SDS011;51514;52.206;5.114;2024-03-29T02:16:30;8.82;;;1.83;;
64885;SDS011;51514;52.206;5.114;2024-03-29T02:18:56;9.45;;;3.20;;
64885;SDS011;51514;52.206;5.114;2024-03-29T02:21:21;6.82;;;1.88;;
64885;SDS011;51514;52.206;5.114;2024-03-29T02:23:47;5.88;;;2.20;;
64885;SDS011;51514;52.206;5.114;2024-03-29T02:26:15;5.77;;;2.20;;
64885;SDS011;51514;52.206;5.114;2024-03-29T02:28:44;6.28;;;2.88;;
64885;SDS011;51514;52.206;5.114;2024-03-29T02:31:09;5.15;;;2.30;;
64885;SDS011;51514;52.206;5.114;2024-03-29T02:33:34;6.95;;;2.55;;
64885;SDS011;51514;52.206;5.114;2024-03-29T02:36:00;8.90;;;1.98;;
64885;SDS011;51514;52.206;5.114;2024-03-29T02:38:25;9.80;;;2.40;;
64885;SDS011;51514;52.206;5.114;2024-03-29T02:40:50;8.60;;;2.30;;
64885;SDS011;51514;52.206;5.114;2024-03-29T02:43:16;6.53;;;1.90;;
64885;SDS011;51514;52.206;5.114;2024-03-29T02:45:44;8.70;;;2.20;;
64885;SDS011;51514;52.206;5.114;2024-03-29T02:48:10;6.90;;;1.92;;
64885;SDS011;51514;52.206;5.114;2024-03-29T02:50:35;5.95;;;2.22;;
64885;SDS011;51514;52.206;5.114;2024-03-29T02:53:00;8.75;;;2.70;;
64885;SDS011;51514;52.206;5.114;2024-03-29T02:55:25;5.20;;;1.92;;
64885;SDS011;51514;52.206;5.114;2024-03-29T02:57:51;6.72;;;2.25;;
64885;SDS011;51514;52.206;5.114;2024-03-29T03:00:16;10.07;;;2.83;;
64885;SDS011;51514;52.206;5.114;2024-03-29T03:02:42;8.82;;;2.08;;
64885;SDS011;51514;52.206;5.114;2024-03-29T03:05:07;7.47;;;3.03;;
64885;SDS011;51514;52.206;5.114;2024-03-29T03:07:34;5.13;;;2.05;;
64885;SDS011;51514;52.206;5.114;2024-03-29T03:10:19;6.55;;;2.20;;
64885;SDS011;51514;52.206;5.114;2024-03-29T03:13:03;3.83;;;1.95;;
64885;SDS011;51514;52.206;5.114;2024-03-29T03:15:28;8.95;;;2.60;;
64885;SDS011;51514;52.206;5.114;2024-03-29T03:17:56;5.35;;;1.92;;
64885;SDS011;51514;52.206;5.114;2024-03-29T03:20:21;6.80;;;1.95;;
64885;SDS011;51514;52.206;5.114;2024-03-29T03:22:47;5.35;;;2.60;;
64885;SDS011;51514;52.206;5.114;2024-03-29T03:25:13;7.32;;;2.00;;
64885;SDS011;51514;52.206;5.114;2024-03-29T03:27:38;7.63;;;2.83;;
64885;SDS011;51514;52.206;5.114;2024-03-29T03:30:04;6.60;;;2.63;;
64885;SDS011;51514;52.206;5.114;2024-03-29T03:32:29;6.28;;;2.30;;
64885;SDS011;51514;52.206;5.114;2024-03-29T03:34:55;7.28;;;2.17;;
64885;SDS011;51514;52.206;5.114;2024-03-29T03:37:20;4.95;;;1.92;;
64885;SDS011;51514;52.206;5.114;2024-03-29T03:39:46;11.73;;;2.88;;
64885;SDS011;51514;52.206;5.114;2024-03-29T03:42:11;4.88;;;2.00;;
64885;SDS011;51514;52.206;5.114;2024-03-29T03:44:36;7.53;;;1.85;;
64885;SDS011;51514;52.206;5.114;2024-03-29T03:47:02;6.35;;;2.60;;
64885;SDS011;51514;52.206;5.114;2024-03-29T03:49:27;5.78;;;2.15;;
64885;SDS011;51514;52.206;5.114;2024-03-29T03:51:52;4.78;;;1.58;;
64885;SDS011;51514;52.206;5.114;2024-03-29T03:54:18;5.07;;;1.90;;
64885;SDS011;51514;52.206;5.114;2024-03-29T03:56:43;6.05;;;1.70;;
64885;SDS011;51514;52.206;5.114;2024-03-29T03:59:08;4.40;;;1.75;;
64885;SDS011;51514;52.206;5.114;2024-03-29T04:01:34;5.65;;;1.77;;
64885;SDS011;51514;52.206;5.114;2024-03-29T04:04:00;5.97;;;1.90;;
64885;SDS011;51514;52.206;5.114;2024-03-29T04:06:25;3.97;;;1.60;;
64885;SDS011;51514;52.206;5.114;2024-03-29T04:08:50;3.28;;;1.83;;
64885;SDS011;51514;52.206;5.114;2024-03-29T04:11:16;5.20;;;1.75;;
64885;SDS011;51514;52.206;5.114;2024-03-29T04:13:45;9.38;;;1.95;;
64885;SDS011;51514;52.206;5.114;2024-03-29T04:16:10;5.25;;;1.60;;
64885;SDS011;51514;52.206;5.114;2024-03-29T04:18:36;6.35;;;1.73;;
64885;SDS011;51514;52.206;5.114;2024-03-29T04:21:01;6.40;;;1.60;;
64885;SDS011;51514;52.206;5.114;2024-03-29T04:23:28;5.18;;;2.15;;
64885;SDS011;51514;52.206;5.114;2024-03-29T04:28:19;7.85;;;1.75;;
64885;SDS011;51514;52.206;5.114;2024-03-29T04:30:57;9.68;;;2.80;;
64885;SDS011;51514;52.206;5.114;2024-03-29T04:33:25;5.40;;;1.95;;
64885;SDS011;51514;52.206;5.114;2024-03-29T04:35:55;6.30;;;1.70;;
64885;SDS011;51514;52.206;5.114;2024-03-29T04:40:47;7.13;;;2.78;;
64885;SDS011;51514;52.206;5.114;2024-03-29T04:43:17;5.55;;;1.67;;
64885;SDS011;51514;52.206;5.114;2024-03-29T04:45:45;7.47;;;2.35;;
64885;SDS011;51514;52.206;5.114;2024-03-29T04:48:11;4.20;;;1.90;;
64885;SDS011;51514;52.206;5.114;2024-03-29T04:50:36;5.20;;;1.92;;
64885;SDS011;51514;52.206;5.114;2024-03-29T04:53:02;5.28;;;1.95;;
64885;SDS011;51514;52.206;5.114;2024-03-29T04:55:27;3.38;;;1.20;;
64885;SDS011;51514;52.206;5.114;2024-03-29T04:57:53;2.60;;;1.65;;
64885;SDS011;51514;52.206;5.114;2024-03-29T05:00:18;3.92;;;1.70;;
64885;SDS011;51514;52.206;5.114;2024-03-29T05:02:43;2.20;;;1.17;;
64885;SDS011;51514;52.206;5.114;2024-03-29T05:05:09;3.65;;;1.20;;
64885;SDS011;51514;52.206;5.114;2024-03-29T05:07:34;4.60;;;1.38;;
64885;SDS011;51514;52.206;5.114;2024-03-29T05:10:00;4.25;;;1.40;;
64885;SDS011;51514;52.206;5.114;2024-03-29T05:12:25;4.25;;;1.67;;
64885;SDS011;51514;52.206;5.114;2024-03-29T05:14:50;3.70;;;1.10;;
64885;SDS011;51514;52.206;5.114;2024-03-29T05:17:16;2.58;;;1.20;;
64885;SDS011;51514;52.206;5.114;2024-03-29T05:19:50;2.10;;;1.08;;
64885;SDS011;51514;52.206;5.114;2024-03-29T05:22:15;1.80;;;1.00;;
64885;SDS011;51514;52.206;5.114;2024-03-29T05:24:41;2.40;;;0.98;;
64885;SDS011;51514;52.206;5.114;2024-03-29T05:27:06;0.70;;;0.70;;
64885;SDS011;51514;52.206;5.114;2024-03-29T05:29:31;1.98;;;0.80;;
64885;SDS011;51514;52.206;5.114;2024-03-29T05:31:56;3.80;;;1.15;;
64885;SDS011;51514;52.206;5.114;2024-03-29T05:34:22;2.10;;;1.05;;
64885;SDS011;51514;52.206;5.114;2024-03-29T05:36:48;4.78;;;1.10;;
64885;SDS011;51514;52.206;5.114;2024-03-29T05:39:13;2.20;;;1.50;;
64885;SDS011;51514;52.206;5.114;2024-03-29T05:41:40;3.60;;;1.10;;
64885;SDS011;51514;52.206;5.114;2024-03-29T05:44:06;2.90;;;1.20;;
64885;SDS011;51514;52.206;5.114;2024-03-29T05:46:31;3.40;;;1.23;;
64885;SDS011;51514;52.206;5.114;2024-03-29T05:48:56;1.70;;;1.08;;
64885;SDS011;51514;52.206;5.114;2024-03-29T05:51:22;2.58;;;0.90;;
64885;SDS011;51514;52.206;5.114;2024-03-29T05:53:47;1.40;;;0.90;;
64885;SDS011;51514;52.206;5.114;2024-03-29T05:56:13;1.58;;;1.10;;
64885;SDS011;51514;52.206;5.114;2024-03-29T05:58:38;2.50;;;1.40;;
64885;SDS011;51514;52.206;5.114;2024-03-29T06:01:03;3.45;;;1.10;;
64885;SDS011;51514;52.206;5.114;2024-03-29T06:03:29;5.80;;;1.33;;
64885;SDS011;51514;52.206;5.114;2024-03-29T06:05:54;2.92;;;1.63;;
64885;SDS011;51514;52.206;5.114;2024-03-29T06:08:20;2.47;;;1.45;;
64885;SDS011;51514;52.206;5.114;2024-03-29T06:10:46;2.85;;;1.20;;
64885;SDS011;51514;52.206;5.114;2024-03-29T06:13:11;2.20;;;1.80;;
64885;SDS011;51514;52.206;5.114;2024-03-29T06:15:53;4.53;;;1.52;;
64885;SDS011;51514;52.206;5.114;2024-03-29T06:18:37;6.00;;;1.60;;
64885;SDS011;51514;52.206;5.114;2024-03-29T06:21:02;2.85;;;1.70;;
64885;SDS011;51514;52.206;5.114;2024-03-29T06:23:28;1.67;;;1.13;;
64885;SDS011;51514;52.206;5.114;2024-03-29T06:25:53;5.63;;;1.70;;
64885;SDS011;51514;52.206;5.114;2024-03-29T06:28:18;3.65;;;1.42;;
64885;SDS011;51514;52.206;5.114;2024-03-29T06:30:44;3.88;;;1.50;;
64885;SDS011;51514;52.206;5.114;2024-03-29T06:33:09;2.53;;;1.40;;
64885;SDS011;51514;52.206;5.114;2024-03-29T06:35:35;4.28;;;1.63;;
64885;SDS011;51514;52.206;5.114;2024-03-29T06:38:00;4.40;;;1.65;;
64885;SDS011;51514;52.206;5.114;2024-03-29T06:40:27;4.43;;;1.55;;
64885;SDS011;51514;52.206;5.114;2024-03-29T06:42:54;2.88;;;2.17;;
64885;SDS011;51514;52.206;5.114;2024-03-29T06:45:21;4.10;;;1.50;;
64885;SDS011;51514;52.206;5.114;2024-03-29T06:47:47;3.25;;;1.50;;
64885;SDS011;51514;52.206;5.114;2024-03-29T06:50:12;4.78;;;1.65;;
64885;SDS011;51514;52.206;5.114;2024-03-29T06:52:37;3.40;;;1.85;;
64885;SDS011;51514;52.206;5.114;2024-03-29T06:55:03;2.60;;;1.27;;
64885;SDS011;51514;52.206;5.114;2024-03-29T06:57:28;2.08;;;1.58;;
64885;SDS011;51514;52.206;5.114;2024-03-29T06:59:56;3.28;;;1.15;;
64885;SDS011;51514;52.206;5.114;2024-03-29T07:02:21;5.47;;;1.67;;
64885;SDS011;51514;52.206;5.114;2024-03-29T07:04:47;2.60;;;1.25;;
64885;SDS011;51514;52.206;5.114;2024-03-29T07:07:12;3.03;;;1.35;;
64885;SDS011;51514;52.206;5.114;2024-03-29T07:09:37;2.60;;;1.52;;
64885;SDS011;51514;52.206;5.114;2024-03-29T07:12:03;6.65;;;2.47;;
64885;SDS011;51514;52.206;5.114;2024-03-29T07:14:28;4.03;;;1.48;;
64885;SDS011;51514;52.206;5.114;2024-03-29T07:16:56;4.20;;;1.45;;
64885;SDS011;51514;52.206;5.114;2024-03-29T07:19:22;2.25;;;1.30;;
64885;SDS011;51514;52.206;5.114;2024-03-29T07:21:47;4.28;;;1.85;;
64885;SDS011;51514;52.206;5.114;2024-03-29T07:24:13;2.95;;;1.40;;
64885;SDS011;51514;52.206;5.114;2024-03-29T07:26:39;2.75;;;1.48;;
64885;SDS011;51514;52.206;5.114;2024-03-29T07:29:05;2.63;;;1.20;;
64885;SDS011;51514;52.206;5.114;2024-03-29T07:31:31;2.33;;;1.35;;
64885;SDS011;51514;52.206;5.114;2024-03-29T07:33:59;4.70;;;1.60;;
64885;SDS011;51514;52.206;5.114;2024-03-29T07:36:25;3.78;;;1.48;;
64885;SDS011;51514;52.206;5.114;2024-03-29T07:38:52;2.70;;;1.48;;
64885;SDS011;51514;52.206;5.114;2024-03-29T07:41:17;3.58;;;1.50;;
64885;SDS011;51514;52.206;5.114;2024-03-29T07:43:55;4.57;;;1.60;;
64885;SDS011;51514;52.206;5.114;2024-03-29T07:46:28;2.97;;;1.35;;
64885;SDS011;51514;52.206;5.114;2024-03-29T07:48:57;3.58;;;1.52;;
64885;SDS011;51514;52.206;5.114;2024-03-29T07:51:22;2.28;;;1.63;;
64885;SDS011;51514;52.206;5.114;2024-03-29T07:53:47;1.35;;;1.17;;
64885;SDS011;51514;52.206;5.114;2024-03-29T07:56:13;3.03;;;1.23;;
64885;SDS011;51514;52.206;5.114;2024-03-29T07:58:38;2.38;;;1.38;;
64885;SDS011;51514;52.206;5.114;2024-03-29T08:01:03;4.07;;;1.33;;
64885;SDS011;51514;52.206;5.114;2024-03-29T08:03:32;4.20;;;1.40;;
64885;SDS011;51514;52.206;5.114;2024-03-29T08:06:02;2.70;;;1.20;;
64885;SDS011;51514;52.206;5.114;2024-03-29T08:08:31;1.95;;;1.08;;
64885;SDS011;51514;52.206;5.114;2024-03-29T08:10:57;2.22;;;1.13;;
64885;SDS011;51514;52.206;5.114;2024-03-29T08:13:24;1.60;;;1.10;;
64885;SDS011;51514;52.206;5.114;2024-03-29T08:15:58;3.33;;;1.20;;
64885;SDS011;51514;52.206;5.114;2024-03-29T08:18:25;2.42;;;1.17;;
64885;SDS011;51514;52.206;5.114;2024-03-29T08:20:51;2.25;;;1.17;;
64885;SDS011;51514;52.206;5.114;2024-03-29T08:23:16;2.25;;;1.20;;
64885;SDS011;51514;52.206;5.114;2024-03-29T08:25:42;2.05;;;1.30;;
64885;SDS011;51514;52.206;5.114;2024-03-29T08:28:07;4.32;;;1.63;;
64885;SDS011;51514;52.206;5.114;2024-03-29T08:30:32;3.40;;;1.35;;
64885;SDS011;51514;52.206;5.114;2024-03-29T08:33:01;1.35;;;1.02;;
64885;SDS011;51514;52.206;5.114;2024-03-29T08:35:30;1.20;;;1.08;;
64885;SDS011;51514;52.206;5.114;2024-03-29T08:37:58;2.10;;;1.17;;
64885;SDS011;51514;52.206;5.114;2024-03-29T08:40:27;1.45;;;0.98;;
64885;SDS011;51514;52.206;5.114;2024-03-29T08:43:04;1.58;;;1.25;;
64885;SDS011;51514;52.206;5.114;2024-03-29T08:45:33;1.00;;;1.00;;
64885;SDS011;51514;52.206;5.114;2024-03-29T08:47:58;3.53;;;1.30;;
64885;SDS011;51514;52.206;5.114;2024-03-29T08:50:23;3.70;;;1.35;;
64885;SDS011;51514;52.206;5.114;2024-03-29T08:52:49;1.52;;;1.15;;
64885;SDS011;51514;52.206;5.114;2024-03-29T08:55:14;3.83;;;1.92;;
64885;SDS011;51514;52.206;5.114;2024-03-29T08:57:39;4.50;;;1.67;;
64885;SDS011;51514;52.206;5.114;2024-03-29T09:00:05;6.93;;;1.52;;
64885;SDS011;51514;52.206;5.114;2024-03-29T09:02:31;2.15;;;1.40;;
64885;SDS011;51514;52.206;5.114;2024-03-29T09:04:56;1.58;;;1.05;;
64885;SDS011;51514;52.206;5.114;2024-03-29T09:07:23;1.52;;;0.80;;
64885;SDS011;51514;52.206;5.114;2024-03-29T09:09:49;3.17;;;1.38;;
64885;SDS011;51514;52.206;5.114;2024-03-29T09:12:15;1.52;;;1.13;;
64885;SDS011;51514;52.206;5.114;2024-03-29T09:14:41;1.80;;;1.17;;
64885;SDS011;51514;52.206;5.114;2024-03-29T09:17:06;2.67;;;1.30;;
64885;SDS011;51514;52.206;5.114;2024-03-29T09:19:32;1.80;;;1.17;;
64885;SDS011;51514;52.206;5.114;2024-03-29T09:21:57;2.13;;;1.10;;
64885;SDS011;51514;52.206;5.114;2024-03-29T09:24:23;1.75;;;0.98;;
64885;SDS011;51514;52.206;5.114;2024-03-29T09:26:50;2.20;;;1.20;;
64885;SDS011;51514;52.206;5.114;2024-03-29T09:29:16;1.02;;;0.82;;
64885;SDS011;51514;52.206;5.114;2024-03-29T09:31:43;2.22;;;1.20;;
64885;SDS011;51514;52.206;5.114;2024-03-29T09:34:08;2.53;;;1.15;;
64885;SDS011;51514;52.206;5.114;2024-03-29T09:36:34;2.45;;;1.20;;
64885;SDS011;51514;52.206;5.114;2024-03-29T09:38:59;2.83;;;1.00;;
64885;SDS011;51514;52.206;5.114;2024-03-29T09:41:26;0.77;;;0.70;;
64885;SDS011;51514;52.206;5.114;2024-03-29T09:43:55;0.77;;;0.77;;
64885;SDS011;51514;52.206;5.114;2024-03-29T09:46:27;1.25;;;0.80;;
64885;SDS011;51514;52.206;5.114;2024-03-29T09:48:54;2.28;;;1.08;;
64885;SDS011;51514;52.206;5.114;2024-03-29T09:51:20;1.70;;;0.95;;
64885;SDS011;51514;52.206;5.114;2024-03-29T09:53:46;1.38;;;1.02;;
64885;SDS011;51514;52.206;5.114;2024-03-29T09:56:13;2.42;;;1.15;;
64885;SDS011;51514;52.206;5.114;2024-03-29T09:58:39;1.58;;;1.05;;
64885;SDS011;51514;52.206;5.114;2024-03-29T10:01:05;1.63;;;1.10;;
64885;SDS011;51514;52.206;5.114;2024-03-29T10:03:34;3.65;;;1.25;;
64885;SDS011;51514;52.206;5.114;2024-03-29T10:06:04;2.67;;;1.38;;
64885;SDS011;51514;52.206;5.114;2024-03-29T10:08:30;2.13;;;1.38;;
64885;SDS011;51514;52.206;5.114;2024-03-29T10:11:01;5.18;;;1.50;;
64885;SDS011;51514;52.206;5.114;2024-03-29T10:13:27;2.67;;;1.60;;
64885;SDS011;51514;52.206;5.114;2024-03-29T10:15:52;4.18;;;1.65;;
64885;SDS011;51514;52.206;5.114;2024-03-29T10:18:27;4.18;;;2.53;;
64885;SDS011;51514;52.206;5.114;2024-03-29T10:21:02;5.22;;;1.80;;
64885;SDS011;51514;52.206;5.114;2024-03-29T10:23:29;2.63;;;1.50;;
64885;SDS011;51514;52.206;5.114;2024-03-29T10:25:55;3.65;;;1.85;;
64885;SDS011;51514;52.206;5.114;2024-03-29T10:28:21;4.35;;;1.92;;
64885;SDS011;51514;52.206;5.114;2024-03-29T10:30:48;3.90;;;1.50;;
64885;SDS011;51514;52.206;5.114;2024-03-29T10:33:14;4.05;;;2.00;;
64885;SDS011;51514;52.206;5.114;2024-03-29T10:35:42;4.10;;;1.65;;
64885;SDS011;51514;52.206;5.114;2024-03-29T10:38:11;3.78;;;1.60;;
64885;SDS011;51514;52.206;5.114;2024-03-29T10:40:40;3.50;;;1.60;;
64885;SDS011;51514;52.206;5.114;2024-03-29T10:45:39;2.45;;;1.88;;
64885;SDS011;51514;52.206;5.114;2024-03-29T10:48:05;3.33;;;1.63;;
64885;SDS011;51514;52.206;5.114;2024-03-29T10:50:36;2.23;;;1.70;;
64885;SDS011;51514;52.206;5.114;2024-03-29T10:53:04;4.00;;;2.05;;
64885;SDS011;51514;52.206;5.114;2024-03-29T10:55:30;3.88;;;2.05;;
64885;SDS011;51514;52.206;5.114;2024-03-29T10:58:01;4.30;;;2.25;;
64885;SDS011;51514;52.206;5.114;2024-03-29T11:00:29;3.83;;;2.28;;
64885;SDS011;51514;52.206;5.114;2024-03-29T11:05:44;3.15;;;2.05;;
64885;SDS011;51514;52.206;5.114;2024-03-29T11:08:12;3.35;;;1.90;;
64885;SDS011;51514;52.206;5.114;2024-03-29T11:10:42;2.67;;;1.88;;
64885;SDS011;51514;52.206;5.114;2024-03-29T11:15:57;3.08;;;1.83;;
64885;SDS011;51514;52.206;5.114;2024-03-29T11:18:27;3.00;;;1.85;;
64885;SDS011;51514;52.206;5.114;2024-03-29T11:20:53;3.75;;;1.85;;
64885;SDS011;51514;52.206;5.114;2024-03-29T11:23:21;3.97;;;2.05;;
64885;SDS011;51514;52.206;5.114;2024-03-29T11:25:54;2.58;;;1.83;;
64885;SDS011;51514;52.206;5.114;2024-03-29T11:28:24;3.67;;;2.10;;
64885;SDS011;51514;52.206;5.114;2024-03-29T11:30:51;8.20;;;1.87;;
64885;SDS011;51514;52.206;5.114;2024-03-29T11:33:25;3.20;;;1.90;;
64885;SDS011;51514;52.206;5.114;2024-03-29T11:38:48;4.28;;;1.60;;
64885;SDS011;51514;52.206;5.114;2024-03-29T11:41:15;5.97;;;2.13;;
64885;SDS011;51514;52.206;5.114;2024-03-29T11:43:42;3.55;;;1.60;;
64885;SDS011;51514;52.206;5.114;2024-03-29T11:46:12;1.80;;;1.42;;
64885;SDS011;51514;52.206;5.114;2024-03-29T11:48:39;3.13;;;1.77;;
64885;SDS011;51514;52.206;5.114;2024-03-29T11:51:06;2.65;;;1.98;;
64885;SDS011;51514;52.206;5.114;2024-03-29T11:56:00;4.70;;;1.98;;
64885;SDS011;51514;52.206;5.114;2024-03-29T11:58:28;2.75;;;1.83;;
64885;SDS011;51514;52.206;5.114;2024-03-29T12:00:58;2.15;;;1.73;;
64885;SDS011;51514;52.206;5.114;2024-03-29T12:03:25;3.47;;;2.63;;
64885;SDS011;51514;52.206;5.114;2024-03-29T12:05:52;4.70;;;2.25;;
64885;SDS011;51514;52.206;5.114;2024-03-29T12:08:21;3.88;;;2.50;;
64885;SDS011;51514;52.206;5.114;2024-03-29T12:10:47;6.95;;;2.92;;
64885;SDS011;51514;52.206;5.114;2024-03-29T12:13:15;6.15;;;3.45;;
64885;SDS011;51514;52.206;5.114;2024-03-29T12:15:41;4.88;;;2.97;;
64885;SDS011;51514;52.206;5.114;2024-03-29T12:18:06;7.00;;;3.10;;
64885;SDS011;51514;52.206;5.114;2024-03-29T12:20:32;4.00;;;3.25;;
64885;SDS011;51514;52.206;5.114;2024-03-29T12:23:01;4.38;;;3.67;;
64885;SDS011;51514;52.206;5.114;2024-03-29T12:27:53;4.05;;;3.42;;
64885;SDS011;51514;52.206;5.114;2024-03-29T12:30:19;4.63;;;3.60;;
64885;SDS011;51514;52.206;5.114;2024-03-29T12:32:45;4.75;;;3.72;;
64885;SDS011;51514;52.206;5.114;2024-03-29T12:35:12;5.60;;;3.60;;
64885;SDS011;51514;52.206;5.114;2024-03-29T12:37:47;4.78;;;3.67;;
64885;SDS011;51514;52.206;5.114;2024-03-29T12:40:17;9.30;;;3.60;;
64885;SDS011;51514;52.206;5.114;2024-03-29T12:42:50;5.88;;;3.10;;
64885;SDS011;51514;52.206;5.114;2024-03-29T12:45:18;4.22;;;2.55;;
64885;SDS011;51514;52.206;5.114;2024-03-29T12:47:47;5.35;;;3.20;;
64885;SDS011;51514;52.206;5.114;2024-03-29T12:50:14;4.03;;;3.17;;
64885;SDS011;51514;52.206;5.114;2024-03-29T12:52:50;4.63;;;3.03;;
64885;SDS011;51514;52.206;5.114;2024-03-29T12:55:23;5.25;;;3.15;;
64885;SDS011;51514;52.206;5.114;2024-03-29T12:57:50;4.35;;;2.58;;
64885;SDS011;51514;52.206;5.114;2024-03-29T13:00:18;3.38;;;2.10;;
64885;SDS011;51514;52.206;5.114;2024-03-29T13:02:45;4.95;;;3.05;;
64885;SDS011;51514;52.206;5.114;2024-03-29T13:05:10;4.22;;;2.17;;
64885;SDS011;51514;52.206;5.114;2024-03-29T13:07:36;3.38;;;1.90;;
64885;SDS011;51514;52.206;5.114;2024-03-29T13:10:01;3.72;;;2.08;;
64885;SDS011;51514;52.206;5.114;2024-03-29T13:12:43;4.93;;;2.30;;
64885;SDS011;51514;52.206;5.114;2024-03-29T13:15:18;2.87;;;1.70;;
64885;SDS011;51514;52.206;5.114;2024-03-29T13:17:45;2.85;;;1.92;;
64885;SDS011;51514;52.206;5.114;2024-03-29T13:20:12;3.30;;;1.95;;
64885;SDS011;51514;52.206;5.114;2024-03-29T13:22:40;7.63;;;2.30;;
64885;SDS011;51514;52.206;5.114;2024-03-29T13:25:07;3.08;;;2.22;;
64885;SDS011;51514;52.206;5.114;2024-03-29T13:27:35;3.65;;;2.20;;
64885;SDS011;51514;52.206;5.114;2024-03-29T13:30:04;3.83;;;2.03;;
64885;SDS011;51514;52.206;5.114;2024-03-29T13:32:37;5.90;;;2.55;;
64885;SDS011;51514;52.206;5.114;2024-03-29T13:35:04;3.83;;;2.50;;
64885;SDS011;51514;52.206;5.114;2024-03-29T13:37:31;3.22;;;2.55;;
64885;SDS011;51514;52.206;5.114;2024-03-29T13:39:57;4.45;;;3.20;;
64885;SDS011;51514;52.206;5.114;2024-03-29T13:42:22;5.70;;;3.28;;
64885;SDS011;51514;52.206;5.114;2024-03-29T13:44:53;4.45;;;2.50;;
64885;SDS011;51514;52.206;5.114;2024-03-29T13:47:19;3.03;;;2.35;;
64885;SDS011;51514;52.206;5.114;2024-03-29T13:49:45;5.00;;;2.85;;
64885;SDS011;51514;52.206;5.114;2024-03-29T13:52:12;3.65;;;2.50;;
64885;SDS011;51514;52.206;5.114;2024-03-29T13:54:42;5.45;;;2.90;;
64885;SDS011;51514;52.206;5.114;2024-03-29T13:59:33;6.25;;;2.20;;
64885;SDS011;51514;52.206;5.114;2024-03-29T14:02:02;5.88;;;1.98;;
64885;SDS011;51514;52.206;5.114;2024-03-29T14:04:28;4.88;;;2.38;;
64885;SDS011;51514;52.206;5.114;2024-03-29T14:06:53;4.50;;;2.20;;
64885;SDS011;51514;52.206;5.114;2024-03-29T14:09:18;3.17;;;2.22;;
64885;SDS011;51514;52.206;5.114;2024-03-29T14:11:44;3.58;;;2.00;;
64885;SDS011;51514;52.206;5.114;2024-03-29T14:14:10;3.67;;;2.08;;
64885;SDS011;51514;52.206;5.114;2024-03-29T14:16:37;3.20;;;2.10;;
64885;SDS011;51514;52.206;5.114;2024-03-29T14:19:02;4.75;;;2.65;;
64885;SDS011;51514;52.206;5.114;2024-03-29T14:21:28;4.57;;;3.08;;
64885;SDS011;51514;52.206;5.114;2024-03-29T14:23:54;6.13;;;3.25;;
64885;SDS011;51514;52.206;5.114;2024-03-29T14:26:20;4.13;;;3.00;;
64885;SDS011;51514;52.206;5.114;2024-03-29T14:28:45;6.15;;;3.25;;
64885;SDS011;51514;52.206;5.114;2024-03-29T14:31:10;4.88;;;3.70;;
64885;SDS011;51514;52.206;5.114;2024-03-29T14:33:36;8.57;;;3.95;;
64885;SDS011;51514;52.206;5.114;2024-03-29T14:36:02;5.13;;;3.45;;
64885;SDS011;51514;52.206;5.114;2024-03-29T14:38:28;4.57;;;3.20;;
64885;SDS011;51514;52.206;5.114;2024-03-29T14:40:54;4.53;;;3.03;;
64885;SDS011;51514;52.206;5.114;2024-03-29T14:43:20;4.80;;;2.95;;
64885;SDS011;51514;52.206;5.114;2024-03-29T14:45:46;4.82;;;3.67;;
64885;SDS011;51514;52.206;5.114;2024-03-29T14:48:14;5.65;;;3.00;;
64885;SDS011;51514;52.206;5.114;2024-03-29T14:50:41;4.75;;;3.53;;
64885;SDS011;51514;52.206;5.114;2024-03-29T14:53:06;4.25;;;3.05;;
64885;SDS011;51514;52.206;5.114;2024-03-29T14:55:31;5.75;;;3.10;;
64885;SDS011;51514;52.206;5.114;2024-03-29T14:57:57;4.90;;;3.05;;
64885;SDS011;51514;52.206;5.114;2024-03-29T15:00:22;3.90;;;2.90;;
64885;SDS011;51514;52.206;5.114;2024-03-29T15:02:49;3.60;;;2.60;;
64885;SDS011;51514;52.206;5.114;2024-03-29T15:05:15;3.47;;;2.72;;
64885;SDS011;51514;52.206;5.114;2024-03-29T15:07:40;4.10;;;2.85;;